Terminal Aerodrome Forecast
Issued by NWS Twin Cities, MN

Home | Current Version | Previous Version | Text Only | Print | Product List | Glossary On
Versions: 1 2 3 4 5 6 7 8 9 10 11 12 13 14 15 16 17 18 19 20 21
000
FTUS43 KMPX 220832 AAA
TAFSTC
TAF AMD
KSTC 220832Z 2209/2306 09003KT P6SM BKN250
     FM221500 12006KT P6SM BKN110
     FM222000 12007KT P6SM VCSH OVC045
      TEMPO 2221/2223 3SM -SN BKN030
     FM222300 11006KT 1 1/2SM -SN BR OVC015
     FM230000 10006KT 3/4SM -SN BR VV007=

USA.gov is the U.S. government's official web portal to all federal, state and local government web resources and services.